sensor_id;sensor_type;location;lat;lon;timestamp;P1;durP1;ratioP1;P2;durP2;ratioP2
78783;SDS011;68127;51.050;14.084;2023-04-06T00:02:10;8.90;;;3.88;;
78783;SDS011;68127;51.050;14.084;2023-04-06T00:04:35;7.60;;;4.00;;
78783;SDS011;68127;51.050;14.084;2023-04-06T00:07:01;8.75;;;3.88;;
78783;SDS011;68127;51.050;14.084;2023-04-06T00:09:26;7.07;;;4.10;;
78783;SDS011;68127;51.050;14.084;2023-04-06T00:11:51;7.43;;;3.83;;
78783;SDS011;68127;51.050;14.084;2023-04-06T00:14:16;7.30;;;4.00;;
78783;SDS011;68127;51.050;14.084;2023-04-06T00:16:42;6.53;;;3.70;;
78783;SDS011;68127;51.050;14.084;2023-04-06T00:19:07;6.90;;;3.75;;
78783;SDS011;68127;51.050;14.084;2023-04-06T00:21:32;7.47;;;3.65;;
78783;SDS011;68127;51.050;14.084;2023-04-06T00:23:58;5.47;;;3.55;;
78783;SDS011;68127;51.050;14.084;2023-04-06T00:26:23;7.72;;;3.97;;
78783;SDS011;68127;51.050;14.084;2023-04-06T00:28:48;5.93;;;3.70;;
78783;SDS011;68127;51.050;14.084;2023-04-06T00:31:15;11.40;;;3.60;;
78783;SDS011;68127;51.050;14.084;2023-04-06T00:33:40;6.53;;;3.20;;
78783;SDS011;68127;51.050;14.084;2023-04-06T00:36:06;8.18;;;3.65;;
78783;SDS011;68127;51.050;14.084;2023-04-06T00:38:31;6.93;;;3.03;;
78783;SDS011;68127;51.050;14.084;2023-04-06T00:40:56;6.32;;;3.08;;
78783;SDS011;68127;51.050;14.084;2023-04-06T00:43:22;5.70;;;3.28;;
78783;SDS011;68127;51.050;14.084;2023-04-06T00:45:47;8.40;;;3.97;;
78783;SDS011;68127;51.050;14.084;2023-04-06T00:48:12;7.60;;;3.63;;
78783;SDS011;68127;51.050;14.084;2023-04-06T00:50:38;7.25;;;3.50;;
78783;SDS011;68127;51.050;14.084;2023-04-06T00:53:03;6.63;;;3.40;;
78783;SDS011;68127;51.050;14.084;2023-04-06T00:55:28;6.82;;;3.20;;
78783;SDS011;68127;51.050;14.084;2023-04-06T00:57:54;6.72;;;3.80;;
78783;SDS011;68127;51.050;14.084;2023-04-06T01:00:22;5.80;;;3.35;;
78783;SDS011;68127;51.050;14.084;2023-04-06T01:02:47;7.07;;;3.95;;
78783;SDS011;68127;51.050;14.084;2023-04-06T01:05:13;7.25;;;4.10;;
78783;SDS011;68127;51.050;14.084;2023-04-06T01:07:38;6.15;;;3.50;;
78783;SDS011;68127;51.050;14.084;2023-04-06T01:10:03;8.15;;;4.07;;
78783;SDS011;68127;51.050;14.084;2023-04-06T01:12:29;9.20;;;3.47;;
78783;SDS011;68127;51.050;14.084;2023-04-06T01:14:55;7.03;;;3.45;;
78783;SDS011;68127;51.050;14.084;2023-04-06T01:17:20;6.68;;;3.42;;
78783;SDS011;68127;51.050;14.084;2023-04-06T01:19:45;8.13;;;3.78;;
78783;SDS011;68127;51.050;14.084;2023-04-06T01:22:15;7.18;;;3.85;;
78783;SDS011;68127;51.050;14.084;2023-04-06T01:24:41;6.07;;;3.22;;
78783;SDS011;68127;51.050;14.084;2023-04-06T01:27:06;6.40;;;3.40;;
78783;SDS011;68127;51.050;14.084;2023-04-06T01:29:32;6.30;;;3.22;;
78783;SDS011;68127;51.050;14.084;2023-04-06T01:31:57;6.45;;;3.58;;
78783;SDS011;68127;51.050;14.084;2023-04-06T01:34:22;8.57;;;3.97;;
78783;SDS011;68127;51.050;14.084;2023-04-06T01:36:47;6.55;;;3.45;;
78783;SDS011;68127;51.050;14.084;2023-04-06T01:39:13;9.68;;;4.15;;
78783;SDS011;68127;51.050;14.084;2023-04-06T01:41:38;6.82;;;3.67;;
78783;SDS011;68127;51.050;14.084;2023-04-06T01:44:03;10.15;;;4.13;;
78783;SDS011;68127;51.050;14.084;2023-04-06T01:46:28;9.80;;;4.30;;
78783;SDS011;68127;51.050;14.084;2023-04-06T01:48:54;7.78;;;3.83;;
78783;SDS011;68127;51.050;14.084;2023-04-06T01:51:19;9.07;;;3.45;;
78783;SDS011;68127;51.050;14.084;2023-04-06T01:53:44;8.25;;;3.72;;
78783;SDS011;68127;51.050;14.084;2023-04-06T01:56:10;8.98;;;3.80;;
78783;SDS011;68127;51.050;14.084;2023-04-06T01:58:35;6.25;;;3.40;;
78783;SDS011;68127;51.050;14.084;2023-04-06T02:01:00;6.75;;;3.65;;
78783;SDS011;68127;51.050;14.084;2023-04-06T02:03:26;5.95;;;3.33;;
78783;SDS011;68127;51.050;14.084;2023-04-06T02:05:52;6.28;;;3.60;;
78783;SDS011;68127;51.050;14.084;2023-04-06T02:08:17;6.32;;;3.65;;
78783;SDS011;68127;51.050;14.084;2023-04-06T02:10:42;9.13;;;4.35;;
78783;SDS011;68127;51.050;14.084;2023-04-06T02:13:08;6.82;;;3.80;;
78783;SDS011;68127;51.050;14.084;2023-04-06T02:15:33;7.07;;;3.60;;
78783;SDS011;68127;51.050;14.084;2023-04-06T02:17:58;5.50;;;3.95;;
78783;SDS011;68127;51.050;14.084;2023-04-06T02:20:24;6.97;;;3.85;;
78783;SDS011;68127;51.050;14.084;2023-04-06T02:22:50;6.88;;;3.50;;
78783;SDS011;68127;51.050;14.084;2023-04-06T02:25:15;6.22;;;3.63;;
78783;SDS011;68127;51.050;14.084;2023-04-06T02:27:40;5.88;;;3.70;;
78783;SDS011;68127;51.050;14.084;2023-04-06T02:30:05;8.95;;;3.72;;
78783;SDS011;68127;51.050;14.084;2023-04-06T02:32:31;7.43;;;3.80;;
78783;SDS011;68127;51.050;14.084;2023-04-06T02:34:56;9.63;;;3.50;;
78783;SDS011;68127;51.050;14.084;2023-04-06T02:37:22;8.35;;;3.90;;
78783;SDS011;68127;51.050;14.084;2023-04-06T02:39:49;6.75;;;3.80;;
78783;SDS011;68127;51.050;14.084;2023-04-06T02:42:14;8.48;;;4.22;;
78783;SDS011;68127;51.050;14.084;2023-04-06T02:44:40;7.97;;;3.63;;
78783;SDS011;68127;51.050;14.084;2023-04-06T02:47:08;7.65;;;3.70;;
78783;SDS011;68127;51.050;14.084;2023-04-06T02:49:34;7.18;;;3.72;;
78783;SDS011;68127;51.050;14.084;2023-04-06T02:51:59;7.93;;;4.00;;
78783;SDS011;68127;51.050;14.084;2023-04-06T02:54:24;9.85;;;3.50;;
78783;SDS011;68127;51.050;14.084;2023-04-06T02:56:50;8.23;;;3.95;;
78783;SDS011;68127;51.050;14.084;2023-04-06T02:59:15;9.30;;;3.90;;
78783;SDS011;68127;51.050;14.084;2023-04-06T03:01:40;7.30;;;3.97;;
78783;SDS011;68127;51.050;14.084;2023-04-06T03:04:06;7.25;;;3.65;;
78783;SDS011;68127;51.050;14.084;2023-04-06T03:06:31;7.43;;;3.88;;
78783;SDS011;68127;51.050;14.084;2023-04-06T03:08:56;9.27;;;4.22;;
78783;SDS011;68127;51.050;14.084;2023-04-06T03:11:21;7.18;;;3.70;;
78783;SDS011;68127;51.050;14.084;2023-04-06T03:13:47;6.38;;;4.00;;
78783;SDS011;68127;51.050;14.084;2023-04-06T03:16:12;7.07;;;3.78;;
78783;SDS011;68127;51.050;14.084;2023-04-06T03:18:37;9.05;;;4.13;;
78783;SDS011;68127;51.050;14.084;2023-04-06T03:21:02;6.30;;;3.50;;
78783;SDS011;68127;51.050;14.084;2023-04-06T03:23:28;8.70;;;3.95;;
78783;SDS011;68127;51.050;14.084;2023-04-06T03:25:53;6.63;;;3.75;;
78783;SDS011;68127;51.050;14.084;2023-04-06T03:28:18;6.38;;;3.60;;
78783;SDS011;68127;51.050;14.084;2023-04-06T03:30:44;8.45;;;4.05;;
78783;SDS011;68127;51.050;14.084;2023-04-06T03:33:10;6.40;;;3.75;;
78783;SDS011;68127;51.050;14.084;2023-04-06T03:35:35;6.32;;;4.00;;
78783;SDS011;68127;51.050;14.084;2023-04-06T03:38:01;7.00;;;3.92;;
78783;SDS011;68127;51.050;14.084;2023-04-06T03:40:27;7.35;;;3.55;;
78783;SDS011;68127;51.050;14.084;2023-04-06T03:42:52;6.40;;;3.70;;
78783;SDS011;68127;51.050;14.084;2023-04-06T03:45:17;7.43;;;3.90;;
78783;SDS011;68127;51.050;14.084;2023-04-06T03:47:43;8.63;;;3.80;;
78783;SDS011;68127;51.050;14.084;2023-04-06T03:50:08;8.52;;;3.85;;
78783;SDS011;68127;51.050;14.084;2023-04-06T03:52:34;7.65;;;4.22;;
78783;SDS011;68127;51.050;14.084;2023-04-06T03:55:00;7.35;;;4.53;;
78783;SDS011;68127;51.050;14.084;2023-04-06T03:57:25;9.80;;;4.13;;
78783;SDS011;68127;51.050;14.084;2023-04-06T03:59:51;6.30;;;3.75;;
78783;SDS011;68127;51.050;14.084;2023-04-06T04:02:16;8.68;;;4.45;;
78783;SDS011;68127;51.050;14.084;2023-04-06T04:04:41;7.07;;;4.30;;
78783;SDS011;68127;51.050;14.084;2023-04-06T04:07:06;8.15;;;4.47;;
78783;SDS011;68127;51.050;14.084;2023-04-06T04:09:32;9.52;;;4.53;;
78783;SDS011;68127;51.050;14.084;2023-04-06T04:11:57;9.52;;;4.68;;
78783;SDS011;68127;51.050;14.084;2023-04-06T04:14:22;7.78;;;4.45;;
78783;SDS011;68127;51.050;14.084;2023-04-06T04:16:47;8.43;;;4.63;;
78783;SDS011;68127;51.050;14.084;2023-04-06T04:19:13;7.57;;;4.38;;
78783;SDS011;68127;51.050;14.084;2023-04-06T04:21:44;8.52;;;4.40;;
78783;SDS011;68127;51.050;14.084;2023-04-06T04:24:11;8.68;;;4.50;;
78783;SDS011;68127;51.050;14.084;2023-04-06T04:26:37;8.25;;;4.50;;
78783;SDS011;68127;51.050;14.084;2023-04-06T04:29:02;8.43;;;4.18;;
78783;SDS011;68127;51.050;14.084;2023-04-06T04:31:28;8.23;;;4.07;;
78783;SDS011;68127;51.050;14.084;2023-04-06T04:33:53;7.03;;;4.43;;
78783;SDS011;68127;51.050;14.084;2023-04-06T04:36:18;7.95;;;4.43;;
78783;SDS011;68127;51.050;14.084;2023-04-06T04:38:43;7.03;;;3.50;;
78783;SDS011;68127;51.050;14.084;2023-04-06T04:41:09;8.38;;;3.95;;
78783;SDS011;68127;51.050;14.084;2023-04-06T04:43:34;6.55;;;3.75;;
78783;SDS011;68127;51.050;14.084;2023-04-06T04:45:59;8.18;;;4.35;;
78783;SDS011;68127;51.050;14.084;2023-04-06T04:48:25;8.45;;;4.32;;
78783;SDS011;68127;51.050;14.084;2023-04-06T04:50:50;8.43;;;4.28;;
78783;SDS011;68127;51.050;14.084;2023-04-06T04:53:16;7.03;;;4.10;;
78783;SDS011;68127;51.050;14.084;2023-04-06T04:55:41;8.48;;;4.40;;
78783;SDS011;68127;51.050;14.084;2023-04-06T04:58:06;8.13;;;3.83;;
78783;SDS011;68127;51.050;14.084;2023-04-06T05:00:33;9.88;;;4.78;;
78783;SDS011;68127;51.050;14.084;2023-04-06T05:02:59;7.00;;;3.55;;
78783;SDS011;68127;51.050;14.084;2023-04-06T05:05:24;9.02;;;3.80;;
78783;SDS011;68127;51.050;14.084;2023-04-06T05:07:50;6.65;;;3.78;;
78783;SDS011;68127;51.050;14.084;2023-04-06T05:10:15;7.20;;;4.20;;
78783;SDS011;68127;51.050;14.084;2023-04-06T05:12:40;7.20;;;4.00;;
78783;SDS011;68127;51.050;14.084;2023-04-06T05:15:06;8.80;;;4.18;;
78783;SDS011;68127;51.050;14.084;2023-04-06T05:17:31;9.77;;;4.38;;
78783;SDS011;68127;51.050;14.084;2023-04-06T05:19:56;8.57;;;4.45;;
78783;SDS011;68127;51.050;14.084;2023-04-06T05:22:22;10.20;;;4.28;;
78783;SDS011;68127;51.050;14.084;2023-04-06T05:24:47;7.97;;;4.32;;
78783;SDS011;68127;51.050;14.084;2023-04-06T05:27:12;7.13;;;4.40;;
78783;SDS011;68127;51.050;14.084;2023-04-06T05:29:38;8.02;;;3.97;;
78783;SDS011;68127;51.050;14.084;2023-04-06T05:32:03;8.05;;;4.20;;
78783;SDS011;68127;51.050;14.084;2023-04-06T05:34:28;8.23;;;4.50;;
78783;SDS011;68127;51.050;14.084;2023-04-06T05:36:54;7.97;;;4.47;;
78783;SDS011;68127;51.050;14.084;2023-04-06T05:39:19;7.88;;;4.35;;
78783;SDS011;68127;51.050;14.084;2023-04-06T05:41:45;8.07;;;4.47;;
78783;SDS011;68127;51.050;14.084;2023-04-06T05:44:10;7.13;;;4.60;;
78783;SDS011;68127;51.050;14.084;2023-04-06T05:46:35;9.40;;;4.40;;
78783;SDS011;68127;51.050;14.084;2023-04-06T05:49:01;8.95;;;4.68;;
78783;SDS011;68127;51.050;14.084;2023-04-06T05:51:26;8.82;;;4.10;;
78783;SDS011;68127;51.050;14.084;2023-04-06T05:53:52;12.18;;;4.20;;
78783;SDS011;68127;51.050;14.084;2023-04-06T05:56:17;8.50;;;4.03;;
78783;SDS011;68127;51.050;14.084;2023-04-06T05:58:42;7.38;;;4.35;;
78783;SDS011;68127;51.050;14.084;2023-04-06T06:01:08;8.20;;;4.30;;
78783;SDS011;68127;51.050;14.084;2023-04-06T06:03:34;9.82;;;4.90;;
78783;SDS011;68127;51.050;14.084;2023-04-06T06:06:00;8.50;;;4.95;;
78783;SDS011;68127;51.050;14.084;2023-04-06T06:08:26;7.78;;;4.25;;
78783;SDS011;68127;51.050;14.084;2023-04-06T06:10:52;7.03;;;4.40;;
78783;SDS011;68127;51.050;14.084;2023-04-06T06:13:17;8.02;;;4.70;;
78783;SDS011;68127;51.050;14.084;2023-04-06T06:15:42;8.32;;;4.40;;
78783;SDS011;68127;51.050;14.084;2023-04-06T06:18:07;10.25;;;4.70;;
78783;SDS011;68127;51.050;14.084;2023-04-06T06:20:33;6.72;;;4.18;;
78783;SDS011;68127;51.050;14.084;2023-04-06T06:22:58;9.30;;;4.00;;
78783;SDS011;68127;51.050;14.084;2023-04-06T06:25:23;9.23;;;4.40;;
78783;SDS011;68127;51.050;14.084;2023-04-06T06:27:49;8.57;;;4.40;;
78783;SDS011;68127;51.050;14.084;2023-04-06T06:30:14;9.45;;;4.85;;
78783;SDS011;68127;51.050;14.084;2023-04-06T06:32:40;14.05;;;5.10;;
78783;SDS011;68127;51.050;14.084;2023-04-06T06:35:05;12.00;;;5.30;;
78783;SDS011;68127;51.050;14.084;2023-04-06T06:37:30;11.00;;;5.55;;
78783;SDS011;68127;51.050;14.084;2023-04-06T06:39:56;11.75;;;5.47;;
78783;SDS011;68127;51.050;14.084;2023-04-06T06:42:21;12.25;;;5.85;;
78783;SDS011;68127;51.050;14.084;2023-04-06T06:44:46;9.80;;;5.57;;
78783;SDS011;68127;51.050;14.084;2023-04-06T06:47:12;11.32;;;5.25;;
78783;SDS011;68127;51.050;14.084;2023-04-06T06:49:37;11.52;;;5.03;;
78783;SDS011;68127;51.050;14.084;2023-04-06T06:52:02;11.73;;;5.97;;
78783;SDS011;68127;51.050;14.084;2023-04-06T06:54:27;11.40;;;5.70;;
78783;SDS011;68127;51.050;14.084;2023-04-06T06:56:53;12.25;;;6.25;;
78783;SDS011;68127;51.050;14.084;2023-04-06T06:59:19;10.00;;;5.43;;
78783;SDS011;68127;51.050;14.084;2023-04-06T07:01:45;8.32;;;4.90;;
78783;SDS011;68127;51.050;14.084;2023-04-06T07:04:10;9.88;;;5.68;;
78783;SDS011;68127;51.050;14.084;2023-04-06T07:06:36;11.15;;;4.70;;
78783;SDS011;68127;51.050;14.084;2023-04-06T07:09:01;10.25;;;5.32;;
78783;SDS011;68127;51.050;14.084;2023-04-06T07:11:29;8.43;;;4.47;;
78783;SDS011;68127;51.050;14.084;2023-04-06T07:13:55;11.13;;;5.55;;
78783;SDS011;68127;51.050;14.084;2023-04-06T07:16:20;11.18;;;5.28;;
78783;SDS011;68127;51.050;14.084;2023-04-06T07:18:45;10.00;;;5.15;;
78783;SDS011;68127;51.050;14.084;2023-04-06T07:21:11;8.07;;;4.10;;
78783;SDS011;68127;51.050;14.084;2023-04-06T07:23:36;8.02;;;4.10;;
78783;SDS011;68127;51.050;14.084;2023-04-06T07:26:02;7.88;;;4.88;;
78783;SDS011;68127;51.050;14.084;2023-04-06T07:28:27;8.38;;;4.70;;
78783;SDS011;68127;51.050;14.084;2023-04-06T07:30:52;8.32;;;4.70;;
78783;SDS011;68127;51.050;14.084;2023-04-06T07:33:19;7.95;;;4.10;;
78783;SDS011;68127;51.050;14.084;2023-04-06T07:35:44;10.05;;;6.20;;
78783;SDS011;68127;51.050;14.084;2023-04-06T07:38:10;6.93;;;4.35;;
78783;SDS011;68127;51.050;14.084;2023-04-06T07:40:35;8.52;;;4.63;;
78783;SDS011;68127;51.050;14.084;2023-04-06T07:43:00;6.05;;;3.55;;
78783;SDS011;68127;51.050;14.084;2023-04-06T07:45:26;6.50;;;3.65;;
78783;SDS011;68127;51.050;14.084;2023-04-06T07:47:52;9.73;;;3.78;;
78783;SDS011;68127;51.050;14.084;2023-04-06T07:50:17;6.88;;;3.92;;
78783;SDS011;68127;51.050;14.084;2023-04-06T07:52:42;9.00;;;4.20;;
78783;SDS011;68127;51.050;14.084;2023-04-06T07:55:08;7.20;;;3.75;;
78783;SDS011;68127;51.050;14.084;2023-04-06T07:57:33;6.40;;;3.75;;
78783;SDS011;68127;51.050;14.084;2023-04-06T07:59:58;6.50;;;3.67;;
78783;SDS011;68127;51.050;14.084;2023-04-06T08:02:23;5.70;;;3.50;;
78783;SDS011;68127;51.050;14.084;2023-04-06T08:04:49;6.97;;;3.53;;
78783;SDS011;68127;51.050;14.084;2023-04-06T08:07:14;6.32;;;3.45;;
78783;SDS011;68127;51.050;14.084;2023-04-06T08:09:39;6.55;;;3.90;;
78783;SDS011;68127;51.050;14.084;2023-04-06T08:12:05;7.55;;;3.50;;
78783;SDS011;68127;51.050;14.084;2023-04-06T08:14:30;6.82;;;3.20;;
78783;SDS011;68127;51.050;14.084;2023-04-06T08:16:55;8.82;;;4.03;;
78783;SDS011;68127;51.050;14.084;2023-04-06T08:19:21;7.72;;;3.35;;
78783;SDS011;68127;51.050;14.084;2023-04-06T08:21:46;8.38;;;4.00;;
78783;SDS011;68127;51.050;14.084;2023-04-06T08:24:12;5.95;;;3.25;;
78783;SDS011;68127;51.050;14.084;2023-04-06T08:26:37;8.50;;;3.83;;
78783;SDS011;68127;51.050;14.084;2023-04-06T08:29:03;9.55;;;3.63;;
78783;SDS011;68127;51.050;14.084;2023-04-06T08:31:29;10.00;;;3.50;;
78783;SDS011;68127;51.050;14.084;2023-04-06T08:33:55;5.88;;;3.40;;
78783;SDS011;68127;51.050;14.084;2023-04-06T08:36:20;8.82;;;3.45;;
78783;SDS011;68127;51.050;14.084;2023-04-06T08:38:48;6.88;;;3.45;;
78783;SDS011;68127;51.050;14.084;2023-04-06T08:41:14;6.60;;;3.50;;
78783;SDS011;68127;51.050;14.084;2023-04-06T08:43:47;6.40;;;3.15;;
78783;SDS011;68127;51.050;14.084;2023-04-06T08:46:14;6.10;;;2.75;;
78783;SDS011;68127;51.050;14.084;2023-04-06T08:48:39;4.60;;;2.70;;
78783;SDS011;68127;51.050;14.084;2023-04-06T08:51:06;5.15;;;3.00;;
78783;SDS011;68127;51.050;14.084;2023-04-06T08:53:32;5.53;;;2.75;;
78783;SDS011;68127;51.050;14.084;2023-04-06T08:55:58;7.35;;;2.80;;
78783;SDS011;68127;51.050;14.084;2023-04-06T08:58:24;4.43;;;2.50;;
78783;SDS011;68127;51.050;14.084;2023-04-06T09:00:51;4.95;;;2.60;;
78783;SDS011;68127;51.050;14.084;2023-04-06T09:03:16;4.50;;;2.40;;
78783;SDS011;68127;51.050;14.084;2023-04-06T09:05:42;5.40;;;2.83;;
78783;SDS011;68127;51.050;14.084;2023-04-06T09:08:08;3.97;;;2.55;;
78783;SDS011;68127;51.050;14.084;2023-04-06T09:10:33;5.88;;;2.70;;
78783;SDS011;68127;51.050;14.084;2023-04-06T09:13:02;4.60;;;2.50;;
78783;SDS011;68127;51.050;14.084;2023-04-06T09:15:31;5.13;;;3.00;;
78783;SDS011;68127;51.050;14.084;2023-04-06T09:17:56;4.45;;;2.60;;
78783;SDS011;68127;51.050;14.084;2023-04-06T09:20:25;5.40;;;2.50;;
78783;SDS011;68127;51.050;14.084;2023-04-06T09:22:51;4.25;;;2.38;;
78783;SDS011;68127;51.050;14.084;2023-04-06T09:25:20;4.30;;;2.45;;
78783;SDS011;68127;51.050;14.084;2023-04-06T09:27:46;4.43;;;2.42;;
78783;SDS011;68127;51.050;14.084;2023-04-06T09:30:13;5.25;;;2.80;;
78783;SDS011;68127;51.050;14.084;2023-04-06T09:32:58;5.18;;;2.60;;
78783;SDS011;68127;51.050;14.084;2023-04-06T09:35:24;5.80;;;2.78;;
78783;SDS011;68127;51.050;14.084;2023-04-06T09:37:52;5.57;;;2.60;;
78783;SDS011;68127;51.050;14.084;2023-04-06T09:40:17;5.30;;;2.40;;
78783;SDS011;68127;51.050;14.084;2023-04-06T09:42:46;4.72;;;2.53;;
78783;SDS011;68127;51.050;14.084;2023-04-06T09:45:13;5.32;;;2.60;;
78783;SDS011;68127;51.050;14.084;2023-04-06T09:47:39;5.93;;;2.90;;
78783;SDS011;68127;51.050;14.084;2023-04-06T09:50:05;5.10;;;2.38;;
78783;SDS011;68127;51.050;14.084;2023-04-06T09:52:35;3.40;;;2.08;;
78783;SDS011;68127;51.050;14.084;2023-04-06T09:55:03;6.05;;;2.35;;
78783;SDS011;68127;51.050;14.084;2023-04-06T09:57:35;4.75;;;2.38;;
78783;SDS011;68127;51.050;14.084;2023-04-06T10:00:07;7.38;;;3.33;;
78783;SDS011;68127;51.050;14.084;2023-04-06T10:05:17;6.80;;;2.95;;
78783;SDS011;68127;51.050;14.084;2023-04-06T10:07:45;5.63;;;3.47;;
78783;SDS011;68127;51.050;14.084;2023-04-06T10:10:12;5.85;;;2.63;;
78783;SDS011;68127;51.050;14.084;2023-04-06T10:12:39;5.68;;;3.13;;
78783;SDS011;68127;51.050;14.084;2023-04-06T10:15:05;7.85;;;3.65;;
78783;SDS011;68127;51.050;14.084;2023-04-06T10:17:31;8.00;;;3.88;;
78783;SDS011;68127;51.050;14.084;2023-04-06T10:20:01;5.90;;;3.15;;
78783;SDS011;68127;51.050;14.084;2023-04-06T10:22:36;5.40;;;3.08;;
78783;SDS011;68127;51.050;14.084;2023-04-06T10:25:07;4.47;;;2.50;;
78783;SDS011;68127;51.050;14.084;2023-04-06T10:27:33;5.95;;;2.80;;
78783;SDS011;68127;51.050;14.084;2023-04-06T10:30:02;4.35;;;2.65;;
78783;SDS011;68127;51.050;14.084;2023-04-06T10:32:31;5.50;;;2.70;;
78783;SDS011;68127;51.050;14.084;2023-04-06T10:35:04;4.43;;;2.67;;
78783;SDS011;68127;51.050;14.084;2023-04-06T10:40:32;4.68;;;2.63;;
78783;SDS011;68127;51.050;14.084;2023-04-06T10:43:10;4.70;;;2.70;;
78783;SDS011;68127;51.050;14.084;2023-04-06T10:45:37;6.03;;;2.75;;
78783;SDS011;68127;51.050;14.084;2023-04-06T10:48:12;5.10;;;2.88;;
78783;SDS011;68127;51.050;14.084;2023-04-06T10:50:39;5.65;;;3.08;;
78783;SDS011;68127;51.050;14.084;2023-04-06T10:53:05;4.68;;;3.10;;
78783;SDS011;68127;51.050;14.084;2023-04-06T10:55:31;5.30;;;2.83;;
78783;SDS011;68127;51.050;14.084;2023-04-06T10:57:56;6.03;;;3.15;;
78783;SDS011;68127;51.050;14.084;2023-04-06T11:00:22;5.55;;;2.90;;
78783;SDS011;68127;51.050;14.084;2023-04-06T11:02:47;4.90;;;2.67;;
78783;SDS011;68127;51.050;14.084;2023-04-06T11:05:13;4.93;;;2.85;;
78783;SDS011;68127;51.050;14.084;2023-04-06T11:07:39;4.88;;;2.65;;
78783;SDS011;68127;51.050;14.084;2023-04-06T11:10:05;5.05;;;2.75;;
78783;SDS011;68127;51.050;14.084;2023-04-06T11:12:31;10.60;;;3.28;;
78783;SDS011;68127;51.050;14.084;2023-04-06T11:14:57;5.93;;;3.13;;
78783;SDS011;68127;51.050;14.084;2023-04-06T11:17:29;4.33;;;2.67;;
78783;SDS011;68127;51.050;14.084;2023-04-06T11:19:54;4.90;;;3.00;;
78783;SDS011;68127;51.050;14.084;2023-04-06T11:22:20;6.18;;;3.08;;
78783;SDS011;68127;51.050;14.084;2023-04-06T11:24:45;5.15;;;3.00;;
78783;SDS011;68127;51.050;14.084;2023-04-06T11:27:11;4.10;;;2.60;;
78783;SDS011;68127;51.050;14.084;2023-04-06T11:29:36;5.45;;;2.67;;
78783;SDS011;68127;51.050;14.084;2023-04-06T11:32:06;5.03;;;2.92;;
78783;SDS011;68127;51.050;14.084;2023-04-06T11:34:33;5.47;;;2.92;;
78783;SDS011;68127;51.050;14.084;2023-04-06T11:37:04;5.82;;;2.95;;
78783;SDS011;68127;51.050;14.084;2023-04-06T11:39:36;6.65;;;3.15;;
78783;SDS011;68127;51.050;14.084;2023-04-06T11:42:03;5.93;;;3.08;;
78783;SDS011;68127;51.050;14.084;2023-04-06T11:44:32;7.63;;;3.10;;
78783;SDS011;68127;51.050;14.084;2023-04-06T11:47:02;5.38;;;3.20;;
78783;SDS011;68127;51.050;14.084;2023-04-06T11:49:28;4.85;;;2.97;;
78783;SDS011;68127;51.050;14.084;2023-04-06T11:51:54;5.20;;;2.80;;
78783;SDS011;68127;51.050;14.084;2023-04-06T11:54:33;6.07;;;2.92;;
78783;SDS011;68127;51.050;14.084;2023-04-06T11:56:59;4.15;;;2.70;;
78783;SDS011;68127;51.050;14.084;2023-04-06T11:59:25;4.70;;;2.80;;
78783;SDS011;68127;51.050;14.084;2023-04-06T12:01:52;5.63;;;2.67;;
78783;SDS011;68127;51.050;14.084;2023-04-06T12:04:18;6.43;;;3.10;;
78783;SDS011;68127;51.050;14.084;2023-04-06T12:06:43;5.43;;;3.00;;
78783;SDS011;68127;51.050;14.084;2023-04-06T12:09:08;5.47;;;3.03;;
78783;SDS011;68127;51.050;14.084;2023-04-06T12:11:33;4.55;;;3.08;;
78783;SDS011;68127;51.050;14.084;2023-04-06T12:13:59;6.18;;;3.30;;
78783;SDS011;68127;51.050;14.084;2023-04-06T12:16:26;5.20;;;2.90;;
78783;SDS011;68127;51.050;14.084;2023-04-06T12:18:51;5.05;;;2.95;;
78783;SDS011;68127;51.050;14.084;2023-04-06T12:21:17;6.38;;;2.90;;
78783;SDS011;68127;51.050;14.084;2023-04-06T12:23:42;5.22;;;3.10;;
78783;SDS011;68127;51.050;14.084;2023-04-06T12:26:07;5.03;;;2.92;;
78783;SDS011;68127;51.050;14.084;2023-04-06T12:28:32;5.90;;;2.95;;
78783;SDS011;68127;51.050;14.084;2023-04-06T12:30:58;4.80;;;2.80;;
78783;SDS011;68127;51.050;14.084;2023-04-06T12:33:23;5.32;;;3.05;;
78783;SDS011;68127;51.050;14.084;2023-04-06T12:35:49;4.93;;;2.90;;
78783;SDS011;68127;51.050;14.084;2023-04-06T12:38:14;4.95;;;3.00;;
78783;SDS011;68127;51.050;14.084;2023-04-06T12:40:40;4.78;;;3.15;;
78783;SDS011;68127;51.050;14.084;2023-04-06T12:43:05;4.80;;;2.83;;
78783;SDS011;68127;51.050;14.084;2023-04-06T12:45:31;4.30;;;2.60;;
78783;SDS011;68127;51.050;14.084;2023-04-06T12:47:56;5.85;;;3.40;;
78783;SDS011;68127;51.050;14.084;2023-04-06T12:50:22;6.53;;;3.47;;
78783;SDS011;68127;51.050;14.084;2023-04-06T12:52:47;6.22;;;3.20;;
78783;SDS011;68127;51.050;14.084;2023-04-06T12:55:12;4.93;;;3.05;;
78783;SDS011;68127;51.050;14.084;2023-04-06T12:57:37;5.07;;;2.65;;
78783;SDS011;68127;51.050;14.084;2023-04-06T13:00:03;6.38;;;3.80;;
78783;SDS011;68127;51.050;14.084;2023-04-06T13:02:30;5.65;;;3.20;;
78783;SDS011;68127;51.050;14.084;2023-04-06T13:04:55;4.80;;;2.80;;
78783;SDS011;68127;51.050;14.084;2023-04-06T13:07:21;6.53;;;3.40;;
78783;SDS011;68127;51.050;14.084;2023-04-06T13:09:46;5.10;;;3.58;;
78783;SDS011;68127;51.050;14.084;2023-04-06T13:12:14;6.68;;;2.95;;
78783;SDS011;68127;51.050;14.084;2023-04-06T13:14:39;5.28;;;3.08;;
78783;SDS011;68127;51.050;14.084;2023-04-06T13:17:05;5.65;;;3.35;;
78783;SDS011;68127;51.050;14.084;2023-04-06T13:19:31;7.10;;;3.30;;
78783;SDS011;68127;51.050;14.084;2023-04-06T13:21:56;5.65;;;3.40;;
78783;SDS011;68127;51.050;14.084;2023-04-06T13:24:21;5.55;;;3.22;;
78783;SDS011;68127;51.050;14.084;2023-04-06T13:26:48;4.57;;;2.90;;
78783;SDS011;68127;51.050;14.084;2023-04-06T13:29:13;5.88;;;3.35;;
78783;SDS011;68127;51.050;14.084;2023-04-06T13:31:38;7.40;;;4.07;;
78783;SDS011;68127;51.050;14.084;2023-04-06T13:34:04;4.97;;;3.40;;
78783;SDS011;68127;51.050;14.084;2023-04-06T13:36:29;5.85;;;3.70;;
78783;SDS011;68127;51.050;14.084;2023-04-06T13:38:55;5.68;;;3.85;;
78783;SDS011;68127;51.050;14.084;2023-04-06T13:41:21;5.82;;;3.60;;
78783;SDS011;68127;51.050;14.084;2023-04-06T13:43:47;5.20;;;3.03;;
78783;SDS011;68127;51.050;14.084;2023-04-06T13:46:12;6.93;;;3.40;;
78783;SDS011;68127;51.050;14.084;2023-04-06T13:48:38;6.25;;;3.40;;
78783;SDS011;68127;51.050;14.084;2023-04-06T13:51:09;5.57;;;3.72;;
78783;SDS011;68127;51.050;14.084;2023-04-06T13:53:38;7.05;;;3.22;;
78783;SDS011;68127;51.050;14.084;2023-04-06T13:56:04;6.90;;;4.30;;
78783;SDS011;68127;51.050;14.084;2023-04-06T13:58:29;6.30;;;3.42;;
78783;SDS011;68127;51.050;14.084;2023-04-06T14:00:54;5.20;;;2.88;;
78783;SDS011;68127;51.050;14.084;2023-04-06T14:03:20;6.35;;;3.60;;
78783;SDS011;68127;51.050;14.084;2023-04-06T14:05:46;6.53;;;3.92;;
78783;SDS011;68127;51.050;14.084;2023-04-06T14:08:12;5.75;;;3.30;;
78783;SDS011;68127;51.050;14.084;2023-04-06T14:10:40;5.15;;;3.17;;
78783;SDS011;68127;51.050;14.084;2023-04-06T14:13:06;6.32;;;3.60;;
78783;SDS011;68127;51.050;14.084;2023-04-06T14:15:32;6.70;;;3.83;;
78783;SDS011;68127;51.050;14.084;2023-04-06T14:17:57;6.20;;;3.28;;
78783;SDS011;68127;51.050;14.084;2023-04-06T14:20:22;5.40;;;3.08;;
78783;SDS011;68127;51.050;14.084;2023-04-06T14:22:48;4.57;;;3.03;;
78783;SDS011;68127;51.050;14.084;2023-04-06T14:25:14;8.07;;;4.13;;
78783;SDS011;68127;51.050;14.084;2023-04-06T14:27:55;5.95;;;3.28;;
78783;SDS011;68127;51.050;14.084;2023-04-06T14:30:32;6.53;;;3.65;;
78783;SDS011;68127;51.050;14.084;2023-04-06T14:32:57;7.45;;;5.13;;